sensor_id;sensor_type;location;lat;lon;timestamp;temperature;humidity
10083;DHT22;5080;48.528;8.078;2023-09-12T00:00:12;22.70;99.90
10083;DHT22;5080;48.528;8.078;2023-09-12T00:02:39;22.70;99.90
10083;DHT22;5080;48.528;8.078;2023-09-12T00:05:07;22.60;99.90
10083;DHT22;5080;48.528;8.078;2023-09-12T00:07:35;22.70;99.90
10083;DHT22;5080;48.528;8.078;2023-09-12T00:10:02;22.70;99.90
10083;DHT22;5080;48.528;8.078;2023-09-12T00:12:29;22.60;99.90
10083;DHT22;5080;48.528;8.078;2023-09-12T00:14:56;22.70;99.90
10083;DHT22;5080;48.528;8.078;2023-09-12T00:17:24;22.70;99.90
10083;DHT22;5080;48.528;8.078;2023-09-12T00:19:52;22.60;99.90
10083;DHT22;5080;48.528;8.078;2023-09-12T00:22:19;22.50;99.90
10083;DHT22;5080;48.528;8.078;2023-09-12T00:24:46;22.50;99.90
10083;DHT22;5080;48.528;8.078;2023-09-12T00:27:12;22.40;99.90
10083;DHT22;5080;48.528;8.078;2023-09-12T00:29:39;22.40;99.90
10083;DHT22;5080;48.528;8.078;2023-09-12T00:32:06;22.30;99.90
10083;DHT22;5080;48.528;8.078;2023-09-12T00:34:34;22.30;99.90
10083;DHT22;5080;48.528;8.078;2023-09-12T00:37:01;22.30;99.90
10083;DHT22;5080;48.528;8.078;2023-09-12T00:39:28;22.20;99.90
10083;DHT22;5080;48.528;8.078;2023-09-12T00:41:55;22.20;99.90
10083;DHT22;5080;48.528;8.078;2023-09-12T00:44:22;22.10;99.90
10083;DHT22;5080;48.528;8.078;2023-09-12T00:46:49;22.00;99.90
10083;DHT22;5080;48.528;8.078;2023-09-12T00:49:17;21.90;99.90
10083;DHT22;5080;48.528;8.078;2023-09-12T00:51:47;21.90;99.90
10083;DHT22;5080;48.528;8.078;2023-09-12T00:54:14;21.80;99.90
10083;DHT22;5080;48.528;8.078;2023-09-12T00:56:42;21.80;99.90
10083;DHT22;5080;48.528;8.078;2023-09-12T00:59:10;21.80;99.90
10083;DHT22;5080;48.528;8.078;2023-09-12T01:01:37;21.90;99.90
10083;DHT22;5080;48.528;8.078;2023-09-12T01:04:04;21.90;99.90
10083;DHT22;5080;48.528;8.078;2023-09-12T01:06:32;21.80;99.90
10083;DHT22;5080;48.528;8.078;2023-09-12T01:09:01;21.80;99.90
10083;DHT22;5080;48.528;8.078;2023-09-12T01:11:28;21.70;99.90
10083;DHT22;5080;48.528;8.078;2023-09-12T01:13:55;21.60;99.90
10083;DHT22;5080;48.528;8.078;2023-09-12T01:16:22;21.50;99.90
10083;DHT22;5080;48.528;8.078;2023-09-12T01:18:49;21.50;99.90
10083;DHT22;5080;48.528;8.078;2023-09-12T01:21:49;21.40;99.90
10083;DHT22;5080;48.528;8.078;2023-09-12T01:24:48;21.50;99.90
10083;DHT22;5080;48.528;8.078;2023-09-12T01:27:22;21.50;99.90
10083;DHT22;5080;48.528;8.078;2023-09-12T01:29:53;21.50;99.90
10083;DHT22;5080;48.528;8.078;2023-09-12T01:32:20;21.40;99.90
10083;DHT22;5080;48.528;8.078;2023-09-12T01:34:47;21.40;99.90
10083;DHT22;5080;48.528;8.078;2023-09-12T01:37:14;21.60;99.90
10083;DHT22;5080;48.528;8.078;2023-09-12T01:39:41;21.60;99.90
10083;DHT22;5080;48.528;8.078;2023-09-12T01:42:11;21.60;99.90
10083;DHT22;5080;48.528;8.078;2023-09-12T01:44:41;21.60;99.90
10083;DHT22;5080;48.528;8.078;2023-09-12T01:47:10;21.50;99.90
10083;DHT22;5080;48.528;8.078;2023-09-12T01:49:39;21.50;99.90
10083;DHT22;5080;48.528;8.078;2023-09-12T01:52:27;21.50;99.90
10083;DHT22;5080;48.528;8.078;2023-09-12T01:54:55;21.50;99.90
10083;DHT22;5080;48.528;8.078;2023-09-12T01:57:22;21.50;99.90
10083;DHT22;5080;48.528;8.078;2023-09-12T01:59:51;21.50;99.90
10083;DHT22;5080;48.528;8.078;2023-09-12T02:02:18;21.50;99.90
10083;DHT22;5080;48.528;8.078;2023-09-12T02:04:50;21.50;99.90
10083;DHT22;5080;48.528;8.078;2023-09-12T02:07:17;21.50;99.90
10083;DHT22;5080;48.528;8.078;2023-09-12T02:09:44;21.40;99.90
10083;DHT22;5080;48.528;8.078;2023-09-12T02:12:11;21.40;99.90
10083;DHT22;5080;48.528;8.078;2023-09-12T02:14:38;21.40;99.90
10083;DHT22;5080;48.528;8.078;2023-09-12T02:17:06;21.30;99.90
10083;DHT22;5080;48.528;8.078;2023-09-12T02:19:32;21.30;99.90
10083;DHT22;5080;48.528;8.078;2023-09-12T02:21:59;21.30;99.90
10083;DHT22;5080;48.528;8.078;2023-09-12T02:24:26;21.40;99.90
10083;DHT22;5080;48.528;8.078;2023-09-12T02:26:53;21.40;99.90
10083;DHT22;5080;48.528;8.078;2023-09-12T02:29:20;21.40;99.90
10083;DHT22;5080;48.528;8.078;2023-09-12T02:31:47;21.40;99.90
10083;DHT22;5080;48.528;8.078;2023-09-12T02:34:15;21.40;99.90
10083;DHT22;5080;48.528;8.078;2023-09-12T02:36:42;21.40;99.90
10083;DHT22;5080;48.528;8.078;2023-09-12T02:39:08;21.30;99.90
10083;DHT22;5080;48.528;8.078;2023-09-12T02:41:35;21.30;99.90
10083;DHT22;5080;48.528;8.078;2023-09-12T02:44:02;21.30;99.90
10083;DHT22;5080;48.528;8.078;2023-09-12T02:46:29;21.30;99.90
10083;DHT22;5080;48.528;8.078;2023-09-12T02:48:56;21.40;99.90
10083;DHT22;5080;48.528;8.078;2023-09-12T02:51:25;21.40;99.90
10083;DHT22;5080;48.528;8.078;2023-09-12T02:53:52;21.30;99.90
10083;DHT22;5080;48.528;8.078;2023-09-12T02:56:19;21.30;99.90
10083;DHT22;5080;48.528;8.078;2023-09-12T02:58:46;21.20;99.90
10083;DHT22;5080;48.528;8.078;2023-09-12T03:01:14;21.20;99.90
10083;DHT22;5080;48.528;8.078;2023-09-12T03:03:41;21.20;99.90
10083;DHT22;5080;48.528;8.078;2023-09-12T03:06:12;21.20;99.90
10083;DHT22;5080;48.528;8.078;2023-09-12T03:08:40;21.20;99.90
10083;DHT22;5080;48.528;8.078;2023-09-12T03:11:07;21.30;99.90
10083;DHT22;5080;48.528;8.078;2023-09-12T03:13:35;21.30;99.90
10083;DHT22;5080;48.528;8.078;2023-09-12T03:16:02;21.30;99.90
10083;DHT22;5080;48.528;8.078;2023-09-12T03:18:29;21.30;99.90
10083;DHT22;5080;48.528;8.078;2023-09-12T03:20:56;21.30;99.90
10083;DHT22;5080;48.528;8.078;2023-09-12T03:23:23;21.40;99.90
10083;DHT22;5080;48.528;8.078;2023-09-12T03:25:51;21.30;99.90
10083;DHT22;5080;48.528;8.078;2023-09-12T03:28:18;21.40;99.90
10083;DHT22;5080;48.528;8.078;2023-09-12T03:30:45;21.30;99.90
10083;DHT22;5080;48.528;8.078;2023-09-12T03:33:11;21.40;99.90
10083;DHT22;5080;48.528;8.078;2023-09-12T03:35:38;21.40;99.90
10083;DHT22;5080;48.528;8.078;2023-09-12T03:38:05;21.40;99.90
10083;DHT22;5080;48.528;8.078;2023-09-12T03:40:32;21.30;99.90
10083;DHT22;5080;48.528;8.078;2023-09-12T03:43:00;21.30;99.90
10083;DHT22;5080;48.528;8.078;2023-09-12T03:45:27;21.30;99.90
10083;DHT22;5080;48.528;8.078;2023-09-12T03:47:53;21.30;99.90
10083;DHT22;5080;48.528;8.078;2023-09-12T03:50:20;21.20;99.90
10083;DHT22;5080;48.528;8.078;2023-09-12T03:52:47;21.30;99.90
10083;DHT22;5080;48.528;8.078;2023-09-12T03:55:14;21.30;99.90
10083;DHT22;5080;48.528;8.078;2023-09-12T03:57:41;21.20;99.90
10083;DHT22;5080;48.528;8.078;2023-09-12T04:00:10;21.30;99.90
10083;DHT22;5080;48.528;8.078;2023-09-12T04:02:38;21.20;99.90
10083;DHT22;5080;48.528;8.078;2023-09-12T04:05:05;21.20;99.90
10083;DHT22;5080;48.528;8.078;2023-09-12T04:07:32;21.20;99.90
10083;DHT22;5080;48.528;8.078;2023-09-12T04:09:59;21.10;99.90
10083;DHT22;5080;48.528;8.078;2023-09-12T04:12:26;21.10;99.90
10083;DHT22;5080;48.528;8.078;2023-09-12T04:14:53;21.20;99.90
10083;DHT22;5080;48.528;8.078;2023-09-12T04:17:21;21.20;99.90
10083;DHT22;5080;48.528;8.078;2023-09-12T04:19:49;21.20;99.90
10083;DHT22;5080;48.528;8.078;2023-09-12T04:22:16;21.30;99.90
10083;DHT22;5080;48.528;8.078;2023-09-12T04:24:42;21.30;99.90
10083;DHT22;5080;48.528;8.078;2023-09-12T04:27:09;21.30;99.90
10083;DHT22;5080;48.528;8.078;2023-09-12T04:29:36;21.30;99.90
10083;DHT22;5080;48.528;8.078;2023-09-12T04:32:03;21.30;99.90
10083;DHT22;5080;48.528;8.078;2023-09-12T04:34:31;21.20;99.90
10083;DHT22;5080;48.528;8.078;2023-09-12T04:36:58;21.10;99.90
10083;DHT22;5080;48.528;8.078;2023-09-12T04:39:27;21.10;99.90
10083;DHT22;5080;48.528;8.078;2023-09-12T04:41:55;21.20;99.90
10083;DHT22;5080;48.528;8.078;2023-09-12T04:44:22;21.20;99.90
10083;DHT22;5080;48.528;8.078;2023-09-12T04:46:49;21.30;99.90
10083;DHT22;5080;48.528;8.078;2023-09-12T04:49:16;21.20;99.90
10083;DHT22;5080;48.528;8.078;2023-09-12T04:51:44;21.20;99.90
10083;DHT22;5080;48.528;8.078;2023-09-12T04:54:11;21.20;99.90
10083;DHT22;5080;48.528;8.078;2023-09-12T04:56:38;21.20;99.90
10083;DHT22;5080;48.528;8.078;2023-09-12T04:59:05;21.20;99.90
10083;DHT22;5080;48.528;8.078;2023-09-12T05:01:32;21.10;99.90
10083;DHT22;5080;48.528;8.078;2023-09-12T05:03:59;21.10;99.90
10083;DHT22;5080;48.528;8.078;2023-09-12T05:06:26;21.10;99.90
10083;DHT22;5080;48.528;8.078;2023-09-12T05:08:54;21.10;99.90
10083;DHT22;5080;48.528;8.078;2023-09-12T05:11:22;21.10;99.90
10083;DHT22;5080;48.528;8.078;2023-09-12T05:13:49;21.10;99.90
10083;DHT22;5080;48.528;8.078;2023-09-12T05:16:16;21.00;99.90
10083;DHT22;5080;48.528;8.078;2023-09-12T05:18:43;20.90;99.90
10083;DHT22;5080;48.528;8.078;2023-09-12T05:21:10;21.00;99.90
10083;DHT22;5080;48.528;8.078;2023-09-12T05:23:37;21.00;99.90
10083;DHT22;5080;48.528;8.078;2023-09-12T05:26:05;21.10;99.90
10083;DHT22;5080;48.528;8.078;2023-09-12T05:28:32;21.10;99.90
10083;DHT22;5080;48.528;8.078;2023-09-12T05:30:58;21.10;99.90
10083;DHT22;5080;48.528;8.078;2023-09-12T05:33:25;21.00;99.90
10083;DHT22;5080;48.528;8.078;2023-09-12T05:35:52;20.80;99.90
10083;DHT22;5080;48.528;8.078;2023-09-12T05:38:19;20.60;99.90
10083;DHT22;5080;48.528;8.078;2023-09-12T05:40:46;20.40;99.90
10083;DHT22;5080;48.528;8.078;2023-09-12T05:43:16;20.40;99.90
10083;DHT22;5080;48.528;8.078;2023-09-12T05:45:44;20.30;99.90
10083;DHT22;5080;48.528;8.078;2023-09-12T05:48:10;20.30;99.90
10083;DHT22;5080;48.528;8.078;2023-09-12T05:50:37;20.30;99.90
10083;DHT22;5080;48.528;8.078;2023-09-12T05:53:04;20.20;99.90
10083;DHT22;5080;48.528;8.078;2023-09-12T05:55:31;20.20;99.90
10083;DHT22;5080;48.528;8.078;2023-09-12T05:57:58;20.20;99.90
10083;DHT22;5080;48.528;8.078;2023-09-12T06:00:26;20.20;99.90
10083;DHT22;5080;48.528;8.078;2023-09-12T06:02:53;20.30;99.90
10083;DHT22;5080;48.528;8.078;2023-09-12T06:05:19;20.30;99.90
10083;DHT22;5080;48.528;8.078;2023-09-12T06:07:46;20.30;99.90
10083;DHT22;5080;48.528;8.078;2023-09-12T06:10:13;20.30;99.90
10083;DHT22;5080;48.528;8.078;2023-09-12T06:12:40;20.40;99.90
10083;DHT22;5080;48.528;8.078;2023-09-12T06:15:07;20.40;99.90
10083;DHT22;5080;48.528;8.078;2023-09-12T06:17:35;20.40;99.90
10083;DHT22;5080;48.528;8.078;2023-09-12T06:20:02;20.40;99.90
10083;DHT22;5080;48.528;8.078;2023-09-12T06:22:31;20.50;99.90
10083;DHT22;5080;48.528;8.078;2023-09-12T06:24:59;20.50;99.90
10083;DHT22;5080;48.528;8.078;2023-09-12T06:27:26;20.50;99.90
10083;DHT22;5080;48.528;8.078;2023-09-12T06:29:52;20.50;99.90
10083;DHT22;5080;48.528;8.078;2023-09-12T06:32:19;20.50;99.90
10083;DHT22;5080;48.528;8.078;2023-09-12T06:34:47;20.60;99.90
10083;DHT22;5080;48.528;8.078;2023-09-12T06:37:14;20.70;99.90
10083;DHT22;5080;48.528;8.078;2023-09-12T06:39:41;20.80;99.90
10083;DHT22;5080;48.528;8.078;2023-09-12T06:42:08;21.00;99.90
10083;DHT22;5080;48.528;8.078;2023-09-12T06:44:35;21.10;99.90
10083;DHT22;5080;48.528;8.078;2023-09-12T06:47:04;21.20;99.90
10083;DHT22;5080;48.528;8.078;2023-09-12T06:49:31;21.30;99.90
10083;DHT22;5080;48.528;8.078;2023-09-12T06:52:00;21.40;99.90
10083;DHT22;5080;48.528;8.078;2023-09-12T06:54:26;21.50;99.90
10083;DHT22;5080;48.528;8.078;2023-09-12T06:56:53;21.70;99.90
10083;DHT22;5080;48.528;8.078;2023-09-12T06:59:20;21.80;99.90
10083;DHT22;5080;48.528;8.078;2023-09-12T07:01:47;21.90;99.90
10083;DHT22;5080;48.528;8.078;2023-09-12T07:04:13;22.00;99.90
10083;DHT22;5080;48.528;8.078;2023-09-12T07:06:40;22.20;99.90
10083;DHT22;5080;48.528;8.078;2023-09-12T07:09:09;22.30;99.90
10083;DHT22;5080;48.528;8.078;2023-09-12T07:11:39;22.40;99.90
10083;DHT22;5080;48.528;8.078;2023-09-12T07:14:06;22.40;99.90
10083;DHT22;5080;48.528;8.078;2023-09-12T07:16:33;22.50;99.90
10083;DHT22;5080;48.528;8.078;2023-09-12T07:18:59;22.60;99.90
10083;DHT22;5080;48.528;8.078;2023-09-12T07:21:26;22.70;99.90
10083;DHT22;5080;48.528;8.078;2023-09-12T07:23:53;22.80;99.90
10083;DHT22;5080;48.528;8.078;2023-09-12T07:26:21;22.90;99.90
10083;DHT22;5080;48.528;8.078;2023-09-12T07:28:48;23.00;99.90
10083;DHT22;5080;48.528;8.078;2023-09-12T07:31:15;23.10;99.90
10083;DHT22;5080;48.528;8.078;2023-09-12T07:33:43;23.30;99.90
10083;DHT22;5080;48.528;8.078;2023-09-12T07:36:10;23.40;99.90
10083;DHT22;5080;48.528;8.078;2023-09-12T07:38:37;23.50;99.90
10083;DHT22;5080;48.528;8.078;2023-09-12T07:41:04;23.70;99.90
10083;DHT22;5080;48.528;8.078;2023-09-12T07:43:32;23.90;99.90
10083;DHT22;5080;48.528;8.078;2023-09-12T07:45:59;24.00;99.90
10083;DHT22;5080;48.528;8.078;2023-09-12T07:48:26;24.10;99.90
10083;DHT22;5080;48.528;8.078;2023-09-12T07:50:53;24.20;99.90
10083;DHT22;5080;48.528;8.078;2023-09-12T07:53:20;24.40;99.90
10083;DHT22;5080;48.528;8.078;2023-09-12T07:55:48;24.40;99.90
10083;DHT22;5080;48.528;8.078;2023-09-12T07:58:15;24.50;99.90
10083;DHT22;5080;48.528;8.078;2023-09-12T08:00:45;24.60;99.90
10083;DHT22;5080;48.528;8.078;2023-09-12T08:03:12;24.80;99.90
10083;DHT22;5080;48.528;8.078;2023-09-12T08:05:39;25.00;99.90
10083;DHT22;5080;48.528;8.078;2023-09-12T08:08:06;25.20;99.90
10083;DHT22;5080;48.528;8.078;2023-09-12T08:10:33;25.50;99.90
10083;DHT22;5080;48.528;8.078;2023-09-12T08:13:00;25.60;99.90
10083;DHT22;5080;48.528;8.078;2023-09-12T08:15:26;25.80;99.90
10083;DHT22;5080;48.528;8.078;2023-09-12T08:17:55;25.80;99.90
10083;DHT22;5080;48.528;8.078;2023-09-12T08:20:22;25.80;99.90
10083;DHT22;5080;48.528;8.078;2023-09-12T08:22:49;25.90;99.90
10083;DHT22;5080;48.528;8.078;2023-09-12T08:25:16;26.00;99.90
10083;DHT22;5080;48.528;8.078;2023-09-12T08:27:43;26.10;99.90
10083;DHT22;5080;48.528;8.078;2023-09-12T08:30:11;26.20;99.90
10083;DHT22;5080;48.528;8.078;2023-09-12T08:32:39;26.30;99.90
10083;DHT22;5080;48.528;8.078;2023-09-12T08:35:10;26.40;99.90
10083;DHT22;5080;48.528;8.078;2023-09-12T08:37:38;26.70;99.90
10083;DHT22;5080;48.528;8.078;2023-09-12T08:40:06;26.70;99.90
10083;DHT22;5080;48.528;8.078;2023-09-12T08:42:38;26.50;99.90
10083;DHT22;5080;48.528;8.078;2023-09-12T08:45:08;26.20;99.90
10083;DHT22;5080;48.528;8.078;2023-09-12T08:47:39;26.10;99.90
10083;DHT22;5080;48.528;8.078;2023-09-12T08:50:10;26.00;99.90
10083;DHT22;5080;48.528;8.078;2023-09-12T08:52:39;26.00;99.90
10083;DHT22;5080;48.528;8.078;2023-09-12T08:55:06;26.00;99.90
10083;DHT22;5080;48.528;8.078;2023-09-12T08:57:34;26.20;99.90
10083;DHT22;5080;48.528;8.078;2023-09-12T09:00:03;26.20;99.90
10083;DHT22;5080;48.528;8.078;2023-09-12T09:02:32;26.30;99.90
10083;DHT22;5080;48.528;8.078;2023-09-12T09:05:01;26.30;99.90
10083;DHT22;5080;48.528;8.078;2023-09-12T09:07:32;26.30;99.90
10083;DHT22;5080;48.528;8.078;2023-09-12T09:10:01;26.40;99.90
10083;DHT22;5080;48.528;8.078;2023-09-12T09:12:29;26.50;99.90
10083;DHT22;5080;48.528;8.078;2023-09-12T09:14:56;26.70;99.90
10083;DHT22;5080;48.528;8.078;2023-09-12T09:17:23;26.80;99.90
10083;DHT22;5080;48.528;8.078;2023-09-12T09:19:50;26.90;99.90
10083;DHT22;5080;48.528;8.078;2023-09-12T09:22:17;27.10;99.90
10083;DHT22;5080;48.528;8.078;2023-09-12T09:24:45;27.50;99.90
10083;DHT22;5080;48.528;8.078;2023-09-12T09:27:12;27.60;99.90
10083;DHT22;5080;48.528;8.078;2023-09-12T09:29:58;27.70;99.90
10083;DHT22;5080;48.528;8.078;2023-09-12T09:32:25;27.90;99.90
10083;DHT22;5080;48.528;8.078;2023-09-12T09:34:52;28.20;99.90
10083;DHT22;5080;48.528;8.078;2023-09-12T09:37:19;28.30;99.90
10083;DHT22;5080;48.528;8.078;2023-09-12T09:39:48;28.40;99.90
10083;DHT22;5080;48.528;8.078;2023-09-12T09:42:17;28.50;99.90
10083;DHT22;5080;48.528;8.078;2023-09-12T09:44:45;28.60;99.90
10083;DHT22;5080;48.528;8.078;2023-09-12T09:47:12;28.80;99.90
10083;DHT22;5080;48.528;8.078;2023-09-12T09:49:39;29.00;99.90
10083;DHT22;5080;48.528;8.078;2023-09-12T09:52:06;29.10;99.90
10083;DHT22;5080;48.528;8.078;2023-09-12T09:54:33;29.20;99.90
10083;DHT22;5080;48.528;8.078;2023-09-12T09:57:01;29.20;99.90
10083;DHT22;5080;48.528;8.078;2023-09-12T09:59:28;29.40;99.90
10083;DHT22;5080;48.528;8.078;2023-09-12T10:01:57;29.60;99.90
10083;DHT22;5080;48.528;8.078;2023-09-12T10:04:27;29.70;99.90
10083;DHT22;5080;48.528;8.078;2023-09-12T10:06:56;29.80;99.90
10083;DHT22;5080;48.528;8.078;2023-09-12T10:09:27;29.80;99.90
10083;DHT22;5080;48.528;8.078;2023-09-12T10:11:55;29.90;99.90
10083;DHT22;5080;48.528;8.078;2023-09-12T10:14:26;30.00;99.90
10083;DHT22;5080;48.528;8.078;2023-09-12T10:17:00;30.20;99.90
10083;DHT22;5080;48.528;8.078;2023-09-12T10:19:34;30.30;99.90
10083;DHT22;5080;48.528;8.078;2023-09-12T10:22:06;30.30;99.90
10083;DHT22;5080;48.528;8.078;2023-09-12T10:24:36;30.00;99.90
10083;DHT22;5080;48.528;8.078;2023-09-12T10:27:05;29.80;99.90
10083;DHT22;5080;48.528;8.078;2023-09-12T10:29:34;29.90;99.90
10083;DHT22;5080;48.528;8.078;2023-09-12T10:32:02;30.10;99.90
10083;DHT22;5080;48.528;8.078;2023-09-12T10:34:30;30.20;99.90
10083;DHT22;5080;48.528;8.078;2023-09-12T10:36:59;30.40;99.90
10083;DHT22;5080;48.528;8.078;2023-09-12T10:39:27;30.70;99.90
10083;DHT22;5080;48.528;8.078;2023-09-12T10:41:54;30.90;99.90
10083;DHT22;5080;48.528;8.078;2023-09-12T10:44:21;31.00;99.90
10083;DHT22;5080;48.528;8.078;2023-09-12T10:46:52;31.00;99.90
10083;DHT22;5080;48.528;8.078;2023-09-12T10:49:20;31.10;99.90
10083;DHT22;5080;48.528;8.078;2023-09-12T10:51:47;31.30;99.90
10083;DHT22;5080;48.528;8.078;2023-09-12T10:54:15;31.30;99.90
10083;DHT22;5080;48.528;8.078;2023-09-12T10:56:43;31.20;99.90
10083;DHT22;5080;48.528;8.078;2023-09-12T10:59:15;31.30;99.90
10083;DHT22;5080;48.528;8.078;2023-09-12T11:01:43;31.30;99.90
10083;DHT22;5080;48.528;8.078;2023-09-12T11:04:32;31.40;99.90
10083;DHT22;5080;48.528;8.078;2023-09-12T11:07:00;31.50;99.90
10083;DHT22;5080;48.528;8.078;2023-09-12T11:09:27;31.50;99.90
10083;DHT22;5080;48.528;8.078;2023-09-12T11:11:57;31.60;99.90
10083;DHT22;5080;48.528;8.078;2023-09-12T11:14:25;31.70;99.90
10083;DHT22;5080;48.528;8.078;2023-09-12T11:17:21;31.60;99.90
10083;DHT22;5080;48.528;8.078;2023-09-12T11:19:50;31.80;99.90
10083;DHT22;5080;48.528;8.078;2023-09-12T11:22:23;31.90;99.90
10083;DHT22;5080;48.528;8.078;2023-09-12T11:24:50;31.90;99.90
10083;DHT22;5080;48.528;8.078;2023-09-12T11:27:18;31.90;99.90
10083;DHT22;5080;48.528;8.078;2023-09-12T11:29:45;31.90;99.90
10083;DHT22;5080;48.528;8.078;2023-09-12T11:32:25;31.90;99.90
10083;DHT22;5080;48.528;8.078;2023-09-12T11:34:53;32.10;99.90
10083;DHT22;5080;48.528;8.078;2023-09-12T11:37:24;32.00;99.90
10083;DHT22;5080;48.528;8.078;2023-09-12T11:39:51;32.10;99.90
10083;DHT22;5080;48.528;8.078;2023-09-12T11:42:18;32.30;99.90
10083;DHT22;5080;48.528;8.078;2023-09-12T11:44:46;32.30;99.90
10083;DHT22;5080;48.528;8.078;2023-09-12T11:47:14;32.20;99.90
10083;DHT22;5080;48.528;8.078;2023-09-12T11:49:41;32.10;99.90
10083;DHT22;5080;48.528;8.078;2023-09-12T11:52:11;32.10;99.90
10083;DHT22;5080;48.528;8.078;2023-09-12T11:54:39;32.20;99.90
10083;DHT22;5080;48.528;8.078;2023-09-12T11:57:07;32.30;99.90
10083;DHT22;5080;48.528;8.078;2023-09-12T11:59:37;32.40;99.90
10083;DHT22;5080;48.528;8.078;2023-09-12T12:02:06;32.50;99.90
10083;DHT22;5080;48.528;8.078;2023-09-12T12:04:34;32.60;99.90
10083;DHT22;5080;48.528;8.078;2023-09-12T12:07:02;32.60;99.90
10083;DHT22;5080;48.528;8.078;2023-09-12T12:09:31;32.60;99.90
10083;DHT22;5080;48.528;8.078;2023-09-12T12:12:04;32.50;99.90
10083;DHT22;5080;48.528;8.078;2023-09-12T12:14:33;32.50;99.90
10083;DHT22;5080;48.528;8.078;2023-09-12T12:17:06;32.50;99.90
10083;DHT22;5080;48.528;8.078;2023-09-12T12:19:33;32.50;99.90
10083;DHT22;5080;48.528;8.078;2023-09-12T12:22:00;32.40;99.90
10083;DHT22;5080;48.528;8.078;2023-09-12T12:24:38;32.40;99.90
10083;DHT22;5080;48.528;8.078;2023-09-12T12:27:05;32.40;99.90
10083;DHT22;5080;48.528;8.078;2023-09-12T12:29:33;32.30;99.90
10083;DHT22;5080;48.528;8.078;2023-09-12T12:32:00;32.30;99.90
10083;DHT22;5080;48.528;8.078;2023-09-12T12:34:27;32.30;99.90
10083;DHT22;5080;48.528;8.078;2023-09-12T12:36:55;32.40;99.90
10083;DHT22;5080;48.528;8.078;2023-09-12T12:39:22;32.50;99.90
10083;DHT22;5080;48.528;8.078;2023-09-12T12:41:53;32.70;99.90
10083;DHT22;5080;48.528;8.078;2023-09-12T12:44:20;32.60;99.90
10083;DHT22;5080;48.528;8.078;2023-09-12T12:46:50;32.60;99.90
10083;DHT22;5080;48.528;8.078;2023-09-12T12:49:17;32.40;99.90
10083;DHT22;5080;48.528;8.078;2023-09-12T12:51:45;32.30;99.90
10083;DHT22;5080;48.528;8.078;2023-09-12T12:54:12;32.20;99.90
10083;DHT22;5080;48.528;8.078;2023-09-12T12:56:40;32.10;99.90
10083;DHT22;5080;48.528;8.078;2023-09-12T12:59:08;31.90;99.90
10083;DHT22;5080;48.528;8.078;2023-09-12T13:01:36;31.80;99.90
10083;DHT22;5080;48.528;8.078;2023-09-12T13:04:05;31.70;99.90
10083;DHT22;5080;48.528;8.078;2023-09-12T13:06:32;31.80;99.90
10083;DHT22;5080;48.528;8.078;2023-09-12T13:09:01;31.90;99.90
10083;DHT22;5080;48.528;8.078;2023-09-12T13:11:30;32.10;99.90
10083;DHT22;5080;48.528;8.078;2023-09-12T13:13:57;32.30;99.90
10083;DHT22;5080;48.528;8.078;2023-09-12T13:16:26;32.40;99.90
10083;DHT22;5080;48.528;8.078;2023-09-12T13:18:52;32.50;99.90
10083;DHT22;5080;48.528;8.078;2023-09-12T13:21:19;32.60;99.90
10083;DHT22;5080;48.528;8.078;2023-09-12T13:23:46;32.70;99.90
10083;DHT22;5080;48.528;8.078;2023-09-12T13:26:13;32.80;99.90
10083;DHT22;5080;48.528;8.078;2023-09-12T13:28:40;32.80;99.90
10083;DHT22;5080;48.528;8.078;2023-09-12T13:31:07;32.80;99.90
10083;DHT22;5080;48.528;8.078;2023-09-12T13:33:35;32.80;99.90
10083;DHT22;5080;48.528;8.078;2023-09-12T13:36:02;32.80;99.90
10083;DHT22;5080;48.528;8.078;2023-09-12T13:38:29;32.80;99.90
10083;DHT22;5080;48.528;8.078;2023-09-12T13:40:56;32.80;99.90
10083;DHT22;5080;48.528;8.078;2023-09-12T13:43:22;32.90;99.90
10083;DHT22;5080;48.528;8.078;2023-09-12T13:45:49;33.00;99.90
10083;DHT22;5080;48.528;8.078;2023-09-12T13:48:16;33.10;99.90
10083;DHT22;5080;48.528;8.078;2023-09-12T13:50:45;33.20;99.90
10083;DHT22;5080;48.528;8.078;2023-09-12T13:53:11;33.20;99.90
10083;DHT22;5080;48.528;8.078;2023-09-12T13:55:38;33.10;99.90
10083;DHT22;5080;48.528;8.078;2023-09-12T13:58:06;33.20;99.90
10083;DHT22;5080;48.528;8.078;2023-09-12T14:00:34;33.20;99.90
10083;DHT22;5080;48.528;8.078;2023-09-12T14:03:01;33.20;99.90
10083;DHT22;5080;48.528;8.078;2023-09-12T14:05:28;33.20;99.90
10083;DHT22;5080;48.528;8.078;2023-09-12T14:07:56;33.20;99.90
10083;DHT22;5080;48.528;8.078;2023-09-12T14:10:23;33.20;99.90
10083;DHT22;5080;48.528;8.078;2023-09-12T14:12:50;33.20;99.00
10083;DHT22;5080;48.528;8.078;2023-09-12T14:15:17;33.20;98.70
10083;DHT22;5080;48.528;8.078;2023-09-12T14:17:44;33.20;99.20
10083;DHT22;5080;48.528;8.078;2023-09-12T14:20:11;33.30;99.70
10083;DHT22;5080;48.528;8.078;2023-09-12T14:22:42;33.40;99.30
10083;DHT22;5080;48.528;8.078;2023-09-12T14:25:10;33.40;99.30
10083;DHT22;5080;48.528;8.078;2023-09-12T14:27:41;33.50;99.40
10083;DHT22;5080;48.528;8.078;2023-09-12T14:30:09;33.50;97.60
10083;DHT22;5080;48.528;8.078;2023-09-12T14:32:37;33.60;97.40
10083;DHT22;5080;48.528;8.078;2023-09-12T14:35:04;33.40;96.80
10083;DHT22;5080;48.528;8.078;2023-09-12T14:37:31;33.40;96.50
10083;DHT22;5080;48.528;8.078;2023-09-12T14:39:58;33.40;96.70
10083;DHT22;5080;48.528;8.078;2023-09-12T14:42:26;33.40;95.80
10083;DHT22;5080;48.528;8.078;2023-09-12T14:44:54;33.40;95.90
10083;DHT22;5080;48.528;8.078;2023-09-12T14:47:21;33.40;96.10
10083;DHT22;5080;48.528;8.078;2023-09-12T14:49:49;33.40;94.80
10083;DHT22;5080;48.528;8.078;2023-09-12T14:52:16;33.30;95.00
10083;DHT22;5080;48.528;8.078;2023-09-12T14:54:43;33.10;95.30
10083;DHT22;5080;48.528;8.078;2023-09-12T14:57:09;33.20;96.10
10083;DHT22;5080;48.528;8.078;2023-09-12T14:59:38;33.30;95.90
10083;DHT22;5080;48.528;8.078;2023-09-12T15:02:05;33.20;96.20
10083;DHT22;5080;48.528;8.078;2023-09-12T15:04:31;33.30;96.10
10083;DHT22;5080;48.528;8.078;2023-09-12T15:06:58;33.30;96.30
10083;DHT22;5080;48.528;8.078;2023-09-12T15:09:25;33.40;97.00
10083;DHT22;5080;48.528;8.078;2023-09-12T15:11:52;33.40;97.20
10083;DHT22;5080;48.528;8.078;2023-09-12T15:14:18;33.40;96.60
10083;DHT22;5080;48.528;8.078;2023-09-12T15:16:47;33.40;97.00
10083;DHT22;5080;48.528;8.078;2023-09-12T15:19:14;33.40;96.70
10083;DHT22;5080;48.528;8.078;2023-09-12T15:21:40;33.40;97.00
10083;DHT22;5080;48.528;8.078;2023-09-12T15:24:08;33.40;96.80
10083;DHT22;5080;48.528;8.078;2023-09-12T15:26:35;33.30;96.70
10083;DHT22;5080;48.528;8.078;2023-09-12T15:29:02;33.30;96.40
10083;DHT22;5080;48.528;8.078;2023-09-12T15:31:28;33.30;96.50
10083;DHT22;5080;48.528;8.078;2023-09-12T15:33:56;33.20;96.10
10083;DHT22;5080;48.528;8.078;2023-09-12T15:36:23;33.20;96.30
10083;DHT22;5080;48.528;8.078;2023-09-12T15:38:50;33.10;96.90
10083;DHT22;5080;48.528;8.078;2023-09-12T15:41:17;33.00;97.50
10083;DHT22;5080;48.528;8.078;2023-09-12T15:43:44;33.10;97.90
10083;DHT22;5080;48.528;8.078;2023-09-12T15:46:11;33.10;97.20
10083;DHT22;5080;48.528;8.078;2023-09-12T15:48:38;32.90;96.90